Seattle, Washington
Current Conditions -  °F | °C
As of 6:53 PM on Monday 20 Oct 2014 (Local Time) from KBFI Reporting Station
Scattered Clouds Scattered Clouds  
Wind Chill: 61°   Ceiling: Unl
Heat Index: 61°   Visibility: 10mi
Dew Point: 52°   Wind: 7mph
Humidity: 72%   Direction: 150°SSE
Pressure: 29.76"   Gusts: NA
Location:  47.6°N, 122.32°W
Report Text: KBFI 210153Z 15006KT 10SM FEW040 SCT070 16/11 A2976 RMK AO2 SLP076 OCNL LTGIC DSNT NW T01610111
Loading
Personal Weather Stations






























Interactive Weather Map New forecast layout! Learn more

10-Day Weather Forecast

Advertisements
Track Severe Weather on mobile